sensor_id;sensor_type;location;lat;lon;timestamp;temperature;humidity
80706;DHT22;70229;48.010;7.852;2024-02-04T00:01:18;8.30;99.90
80706;DHT22;70229;48.010;7.852;2024-02-04T00:03:44;6.70;99.90
80706;DHT22;70229;48.010;7.852;2024-02-04T00:06:09;6.60;99.90
80706;DHT22;70229;48.010;7.852;2024-02-04T00:08:36;6.70;99.90
80706;DHT22;70229;48.010;7.852;2024-02-04T00:11:02;8.40;99.90
80706;DHT22;70229;48.010;7.852;2024-02-04T00:13:30;6.60;99.90
80706;DHT22;70229;48.010;7.852;2024-02-04T00:15:56;6.70;99.90
80706;DHT22;70229;48.010;7.852;2024-02-04T00:18:24;6.40;99.90
80706;DHT22;70229;48.010;7.852;2024-02-04T00:20:50;6.30;99.90
80706;DHT22;70229;48.010;7.852;2024-02-04T00:23:15;7.70;99.90
80706;DHT22;70229;48.010;7.852;2024-02-04T00:25:41;7.00;99.90
80706;DHT22;70229;48.010;7.852;2024-02-04T00:28:07;6.50;99.90
80706;DHT22;70229;48.010;7.852;2024-02-04T00:30:33;6.50;99.90
80706;DHT22;70229;48.010;7.852;2024-02-04T00:32:58;6.60;99.90
80706;DHT22;70229;48.010;7.852;2024-02-04T00:35:28;6.60;99.90
80706;DHT22;70229;48.010;7.852;2024-02-04T00:37:54;6.50;99.90
80706;DHT22;70229;48.010;7.852;2024-02-04T00:40:19;6.50;99.90
80706;DHT22;70229;48.010;7.852;2024-02-04T00:42:45;6.70;99.90
80706;DHT22;70229;48.010;7.852;2024-02-04T00:45:11;7.10;99.90
80706;DHT22;70229;48.010;7.852;2024-02-04T00:47:36;6.60;99.90
80706;DHT22;70229;48.010;7.852;2024-02-04T00:50:02;6.60;99.90
80706;DHT22;70229;48.010;7.852;2024-02-04T00:52:28;6.60;99.90
80706;DHT22;70229;48.010;7.852;2024-02-04T00:54:53;6.70;99.90
80706;DHT22;70229;48.010;7.852;2024-02-04T00:57:19;6.70;99.90
80706;DHT22;70229;48.010;7.852;2024-02-04T00:59:44;6.70;99.90
80706;DHT22;70229;48.010;7.852;2024-02-04T01:02:10;6.70;99.90
80706;DHT22;70229;48.010;7.852;2024-02-04T01:04:35;6.80;99.90
80706;DHT22;70229;48.010;7.852;2024-02-04T01:07:01;7.80;99.90
80706;DHT22;70229;48.010;7.852;2024-02-04T01:09:28;6.80;99.90
80706;DHT22;70229;48.010;7.852;2024-02-04T01:11:53;8.30;99.90
80706;DHT22;70229;48.010;7.852;2024-02-04T01:14:19;7.10;99.90
80706;DHT22;70229;48.010;7.852;2024-02-04T01:16:45;6.70;99.90
80706;DHT22;70229;48.010;7.852;2024-02-04T01:19:10;6.70;99.90
80706;DHT22;70229;48.010;7.852;2024-02-04T01:21:36;6.70;99.90
80706;DHT22;70229;48.010;7.852;2024-02-04T01:24:01;6.80;99.90
80706;DHT22;70229;48.010;7.852;2024-02-04T01:26:27;6.80;99.90
80706;DHT22;70229;48.010;7.852;2024-02-04T01:28:53;6.80;99.90
80706;DHT22;70229;48.010;7.852;2024-02-04T01:31:19;6.70;99.90
80706;DHT22;70229;48.010;7.852;2024-02-04T01:33:44;6.90;99.90
80706;DHT22;70229;48.010;7.852;2024-02-04T01:36:10;6.90;99.90
80706;DHT22;70229;48.010;7.852;2024-02-04T01:38:35;6.90;99.90
80706;DHT22;70229;48.010;7.852;2024-02-04T01:41:02;7.00;99.90
80706;DHT22;70229;48.010;7.852;2024-02-04T01:43:28;7.00;99.90
80706;DHT22;70229;48.010;7.852;2024-02-04T01:45:55;7.10;99.90
80706;DHT22;70229;48.010;7.852;2024-02-04T01:48:21;7.10;99.90
80706;DHT22;70229;48.010;7.852;2024-02-04T01:50:48;7.10;99.90
80706;DHT22;70229;48.010;7.852;2024-02-04T01:53:15;7.10;99.90
80706;DHT22;70229;48.010;7.852;2024-02-04T01:55:43;7.00;99.90
80706;DHT22;70229;48.010;7.852;2024-02-04T01:58:08;7.00;99.90
80706;DHT22;70229;48.010;7.852;2024-02-04T02:00:35;7.10;99.90
80706;DHT22;70229;48.010;7.852;2024-02-04T02:03:01;7.10;99.90
80706;DHT22;70229;48.010;7.852;2024-02-04T02:05:29;6.90;99.90
80706;DHT22;70229;48.010;7.852;2024-02-04T02:07:54;6.90;99.90
80706;DHT22;70229;48.010;7.852;2024-02-04T02:10:21;7.20;99.90
80706;DHT22;70229;48.010;7.852;2024-02-04T02:12:52;6.90;99.90
80706;DHT22;70229;48.010;7.852;2024-02-04T02:15:22;6.80;99.90
80706;DHT22;70229;48.010;7.852;2024-02-04T02:24:38;6.50;99.90
80706;DHT22;70229;48.010;7.852;2024-02-04T02:33:57;6.50;99.90
80706;DHT22;70229;48.010;7.852;2024-02-04T02:36:23;6.50;99.90
80706;DHT22;70229;48.010;7.852;2024-02-04T02:38:56;6.40;99.90
80706;DHT22;70229;48.010;7.852;2024-02-04T02:41:25;6.50;99.90
80706;DHT22;70229;48.010;7.852;2024-02-04T02:43:52;7.40;99.90
80706;DHT22;70229;48.010;7.852;2024-02-04T02:46:20;7.30;99.90
80706;DHT22;70229;48.010;7.852;2024-02-04T02:48:46;6.30;99.90
80706;DHT22;70229;48.010;7.852;2024-02-04T02:51:11;6.40;99.90
80706;DHT22;70229;48.010;7.852;2024-02-04T02:53:37;6.40;99.90
80706;DHT22;70229;48.010;7.852;2024-02-04T02:56:03;6.40;99.90
80706;DHT22;70229;48.010;7.852;2024-02-04T02:58:28;6.40;99.90
80706;DHT22;70229;48.010;7.852;2024-02-04T03:00:54;6.40;99.90
80706;DHT22;70229;48.010;7.852;2024-02-04T03:03:19;6.40;99.90
80706;DHT22;70229;48.010;7.852;2024-02-04T03:05:45;8.10;99.90
80706;DHT22;70229;48.010;7.852;2024-02-04T03:08:10;7.70;99.90
80706;DHT22;70229;48.010;7.852;2024-02-04T03:10:36;6.50;99.90
80706;DHT22;70229;48.010;7.852;2024-02-04T03:13:01;7.80;99.90
80706;DHT22;70229;48.010;7.852;2024-02-04T03:15:27;6.50;99.90
80706;DHT22;70229;48.010;7.852;2024-02-04T03:17:53;6.40;99.90
80706;DHT22;70229;48.010;7.852;2024-02-04T03:20:18;7.40;99.90
80706;DHT22;70229;48.010;7.852;2024-02-04T03:22:45;7.10;99.90
80706;DHT22;70229;48.010;7.852;2024-02-04T03:25:11;7.30;99.90
80706;DHT22;70229;48.010;7.852;2024-02-04T03:27:37;6.40;99.90
80706;DHT22;70229;48.010;7.852;2024-02-04T03:30:05;6.50;99.90
80706;DHT22;70229;48.010;7.852;2024-02-04T03:38:47;6.30;99.90
80706;DHT22;70229;48.010;7.852;2024-02-04T03:41:12;6.40;99.90
80706;DHT22;70229;48.010;7.852;2024-02-04T03:43:38;6.40;99.90
80706;DHT22;70229;48.010;7.852;2024-02-04T03:46:03;7.70;99.90
80706;DHT22;70229;48.010;7.852;2024-02-04T03:48:29;6.40;99.90
80706;DHT22;70229;48.010;7.852;2024-02-04T03:50:55;8.20;99.90
80706;DHT22;70229;48.010;7.852;2024-02-04T03:53:20;6.50;99.90
80706;DHT22;70229;48.010;7.852;2024-02-04T03:55:51;6.50;99.90
80706;DHT22;70229;48.010;7.852;2024-02-04T04:01:52;6.30;99.90
80706;DHT22;70229;48.010;7.852;2024-02-04T04:04:23;6.30;99.90
80706;DHT22;70229;48.010;7.852;2024-02-04T04:06:48;7.20;99.90
80706;DHT22;70229;48.010;7.852;2024-02-04T04:29:11;6.30;99.90
80706;DHT22;70229;48.010;7.852;2024-02-04T04:35:04;6.30;99.90
80706;DHT22;70229;48.010;7.852;2024-02-04T04:37:29;6.40;99.90
80706;DHT22;70229;48.010;7.852;2024-02-04T04:39:55;7.90;99.90
80706;DHT22;70229;48.010;7.852;2024-02-04T04:42:20;6.80;99.90
80706;DHT22;70229;48.010;7.852;2024-02-04T04:44:46;6.50;99.90
80706;DHT22;70229;48.010;7.852;2024-02-04T04:47:12;6.50;99.90
80706;DHT22;70229;48.010;7.852;2024-02-04T04:49:37;7.00;99.90
80706;DHT22;70229;48.010;7.852;2024-02-04T04:52:03;6.40;99.90
80706;DHT22;70229;48.010;7.852;2024-02-04T05:14:40;6.30;99.90
80706;DHT22;70229;48.010;7.852;2024-02-04T05:17:06;7.80;99.90
80706;DHT22;70229;48.010;7.852;2024-02-04T05:19:31;8.00;99.90
80706;DHT22;70229;48.010;7.852;2024-02-04T05:21:57;6.30;99.90
80706;DHT22;70229;48.010;7.852;2024-02-04T05:30:20;6.20;99.90
80706;DHT22;70229;48.010;7.852;2024-02-04T05:32:46;7.50;99.90
80706;DHT22;70229;48.010;7.852;2024-02-04T05:35:11;7.30;99.90
80706;DHT22;70229;48.010;7.852;2024-02-04T05:37:37;6.40;99.90
80706;DHT22;70229;48.010;7.852;2024-02-04T05:40:04;6.30;99.90
80706;DHT22;70229;48.010;7.852;2024-02-04T05:42:30;6.30;99.90
80706;DHT22;70229;48.010;7.852;2024-02-04T05:44:57;6.70;99.90
80706;DHT22;70229;48.010;7.852;2024-02-04T05:47:23;6.90;99.90
80706;DHT22;70229;48.010;7.852;2024-02-04T05:49:48;6.30;99.90
80706;DHT22;70229;48.010;7.852;2024-02-04T05:52:14;6.20;99.90
80706;DHT22;70229;48.010;7.852;2024-02-04T05:54:40;6.30;99.90
80706;DHT22;70229;48.010;7.852;2024-02-04T05:57:06;6.30;99.90
80706;DHT22;70229;48.010;7.852;2024-02-04T05:59:32;6.40;99.90
80706;DHT22;70229;48.010;7.852;2024-02-04T06:01:58;8.00;99.90
80706;DHT22;70229;48.010;7.852;2024-02-04T06:04:23;7.20;99.90
80706;DHT22;70229;48.010;7.852;2024-02-04T06:06:49;6.50;99.90
80706;DHT22;70229;48.010;7.852;2024-02-04T06:09:14;6.40;99.90
80706;DHT22;70229;48.010;7.852;2024-02-04T06:11:40;6.40;99.90
80706;DHT22;70229;48.010;7.852;2024-02-04T06:14:06;6.40;99.90
80706;DHT22;70229;48.010;7.852;2024-02-04T06:16:31;7.60;99.90
80706;DHT22;70229;48.010;7.852;2024-02-04T06:18:59;6.40;99.90
80706;DHT22;70229;48.010;7.852;2024-02-04T06:21:25;6.40;99.90
80706;DHT22;70229;48.010;7.852;2024-02-04T06:23:51;6.30;99.90
80706;DHT22;70229;48.010;7.852;2024-02-04T06:26:16;7.30;99.90
80706;DHT22;70229;48.010;7.852;2024-02-04T06:28:42;6.30;99.90
80706;DHT22;70229;48.010;7.852;2024-02-04T06:31:11;7.30;99.90
80706;DHT22;70229;48.010;7.852;2024-02-04T06:33:37;6.20;99.90
80706;DHT22;70229;48.010;7.852;2024-02-04T06:36:08;6.70;99.90
80706;DHT22;70229;48.010;7.852;2024-02-04T06:38:33;6.30;99.90
80706;DHT22;70229;48.010;7.852;2024-02-04T06:40:59;6.20;99.90
80706;DHT22;70229;48.010;7.852;2024-02-04T06:43:24;6.10;99.90
80706;DHT22;70229;48.010;7.852;2024-02-04T06:45:50;6.10;99.90
80706;DHT22;70229;48.010;7.852;2024-02-04T06:48:19;6.00;99.90
80706;DHT22;70229;48.010;7.852;2024-02-04T06:50:44;6.00;99.90
80706;DHT22;70229;48.010;7.852;2024-02-04T06:53:11;6.00;99.90
80706;DHT22;70229;48.010;7.852;2024-02-04T06:55:36;6.00;99.90
80706;DHT22;70229;48.010;7.852;2024-02-04T06:58:02;6.00;99.90
80706;DHT22;70229;48.010;7.852;2024-02-04T07:00:27;6.10;99.90
80706;DHT22;70229;48.010;7.852;2024-02-04T07:02:53;6.10;99.90
80706;DHT22;70229;48.010;7.852;2024-02-04T07:05:19;6.00;99.90
80706;DHT22;70229;48.010;7.852;2024-02-04T07:07:47;5.90;99.90
80706;DHT22;70229;48.010;7.852;2024-02-04T07:10:13;6.00;99.90
80706;DHT22;70229;48.010;7.852;2024-02-04T07:12:38;6.90;99.90
80706;DHT22;70229;48.010;7.852;2024-02-04T07:15:05;5.90;99.90
80706;DHT22;70229;48.010;7.852;2024-02-04T07:17:30;5.90;99.90
80706;DHT22;70229;48.010;7.852;2024-02-04T07:19:57;7.70;99.90
80706;DHT22;70229;48.010;7.852;2024-02-04T07:22:23;5.90;99.90
80706;DHT22;70229;48.010;7.852;2024-02-04T07:24:49;5.90;99.90
80706;DHT22;70229;48.010;7.852;2024-02-04T07:27:14;6.70;99.90
80706;DHT22;70229;48.010;7.852;2024-02-04T07:29:40;6.00;99.90
80706;DHT22;70229;48.010;7.852;2024-02-04T07:32:06;6.00;99.90
80706;DHT22;70229;48.010;7.852;2024-02-04T07:34:31;6.00;99.90
80706;DHT22;70229;48.010;7.852;2024-02-04T07:36:57;6.10;99.90
80706;DHT22;70229;48.010;7.852;2024-02-04T07:39:23;6.10;99.90
80706;DHT22;70229;48.010;7.852;2024-02-04T07:41:49;6.90;99.90
80706;DHT22;70229;48.010;7.852;2024-02-04T07:44:14;6.20;99.90
80706;DHT22;70229;48.010;7.852;2024-02-04T07:46:40;6.20;99.90
80706;DHT22;70229;48.010;7.852;2024-02-04T07:49:06;7.90;99.90
80706;DHT22;70229;48.010;7.852;2024-02-04T07:51:31;7.50;99.90
80706;DHT22;70229;48.010;7.852;2024-02-04T07:53:57;6.20;99.90
80706;DHT22;70229;48.010;7.852;2024-02-04T07:59:45;6.10;99.90
80706;DHT22;70229;48.010;7.852;2024-02-04T08:05:34;6.20;99.90
80706;DHT22;70229;48.010;7.852;2024-02-04T08:08:01;7.20;99.90
80706;DHT22;70229;48.010;7.852;2024-02-04T08:13:49;6.30;99.90
80706;DHT22;70229;48.010;7.852;2024-02-04T08:16:15;7.30;99.90
80706;DHT22;70229;48.010;7.852;2024-02-04T08:18:40;6.40;99.90
80706;DHT22;70229;48.010;7.852;2024-02-04T08:21:06;6.40;99.90
80706;DHT22;70229;48.010;7.852;2024-02-04T08:23:32;6.50;99.90
80706;DHT22;70229;48.010;7.852;2024-02-04T08:25:58;6.50;99.90
80706;DHT22;70229;48.010;7.852;2024-02-04T08:28:24;7.60;99.90
80706;DHT22;70229;48.010;7.852;2024-02-04T08:30:50;6.70;99.90
80706;DHT22;70229;48.010;7.852;2024-02-04T08:33:16;6.70;99.90
80706;DHT22;70229;48.010;7.852;2024-02-04T08:35:43;7.00;99.90
80706;DHT22;70229;48.010;7.852;2024-02-04T08:38:08;6.90;99.90
80706;DHT22;70229;48.010;7.852;2024-02-04T08:40:34;6.90;99.90
80706;DHT22;70229;48.010;7.852;2024-02-04T08:42:59;7.00;99.90
80706;DHT22;70229;48.010;7.852;2024-02-04T08:45:25;8.40;99.90
80706;DHT22;70229;48.010;7.852;2024-02-04T08:47:51;8.30;99.90
80706;DHT22;70229;48.010;7.852;2024-02-04T08:50:16;7.90;99.90
80706;DHT22;70229;48.010;7.852;2024-02-04T08:52:42;7.20;99.90
80706;DHT22;70229;48.010;7.852;2024-02-04T08:55:08;7.30;99.90
80706;DHT22;70229;48.010;7.852;2024-02-04T08:57:34;7.20;99.90
80706;DHT22;70229;48.010;7.852;2024-02-04T09:00:00;7.40;99.90
80706;DHT22;70229;48.010;7.852;2024-02-04T09:02:26;7.50;99.90
80706;DHT22;70229;48.010;7.852;2024-02-04T09:04:51;7.50;99.90
80706;DHT22;70229;48.010;7.852;2024-02-04T09:07:17;7.60;99.90
80706;DHT22;70229;48.010;7.852;2024-02-04T09:09:42;8.40;99.90
80706;DHT22;70229;48.010;7.852;2024-02-04T09:12:11;7.80;99.90
80706;DHT22;70229;48.010;7.852;2024-02-04T09:14:36;7.90;99.90
80706;DHT22;70229;48.010;7.852;2024-02-04T09:17:05;7.90;99.90
80706;DHT22;70229;48.010;7.852;2024-02-04T09:19:32;8.00;99.90
80706;DHT22;70229;48.010;7.852;2024-02-04T09:21:57;7.90;99.90
80706;DHT22;70229;48.010;7.852;2024-02-04T09:24:23;8.90;99.90
80706;DHT22;70229;48.010;7.852;2024-02-04T09:26:49;8.00;99.90
80706;DHT22;70229;48.010;7.852;2024-02-04T09:29:14;7.80;99.90
80706;DHT22;70229;48.010;7.852;2024-02-04T09:31:40;7.80;99.90
80706;DHT22;70229;48.010;7.852;2024-02-04T09:34:05;7.80;99.90
80706;DHT22;70229;48.010;7.852;2024-02-04T09:36:31;8.70;99.90
80706;DHT22;70229;48.010;7.852;2024-02-04T09:38:56;7.90;99.90
80706;DHT22;70229;48.010;7.852;2024-02-04T09:41:22;7.90;99.90
80706;DHT22;70229;48.010;7.852;2024-02-04T09:43:52;8.10;99.90
80706;DHT22;70229;48.010;7.852;2024-02-04T09:46:19;8.20;99.90
80706;DHT22;70229;48.010;7.852;2024-02-04T09:48:45;9.80;99.90
80706;DHT22;70229;48.010;7.852;2024-02-04T09:51:11;8.60;99.90
80706;DHT22;70229;48.010;7.852;2024-02-04T09:53:43;8.90;99.90
80706;DHT22;70229;48.010;7.852;2024-02-04T09:56:09;9.60;99.90
80706;DHT22;70229;48.010;7.852;2024-02-04T09:58:37;8.40;99.90
80706;DHT22;70229;48.010;7.852;2024-02-04T10:01:04;9.40;99.90
80706;DHT22;70229;48.010;7.852;2024-02-04T10:03:30;8.70;99.90
80706;DHT22;70229;48.010;7.852;2024-02-04T10:05:56;9.40;99.90
80706;DHT22;70229;48.010;7.852;2024-02-04T10:08:21;9.40;99.90
80706;DHT22;70229;48.010;7.852;2024-02-04T10:10:47;9.40;99.90
80706;DHT22;70229;48.010;7.852;2024-02-04T10:13:13;9.60;99.90
80706;DHT22;70229;48.010;7.852;2024-02-04T10:15:39;9.00;99.90
80706;DHT22;70229;48.010;7.852;2024-02-04T10:18:05;10.20;99.90
80706;DHT22;70229;48.010;7.852;2024-02-04T10:20:32;8.80;99.90
80706;DHT22;70229;48.010;7.852;2024-02-04T10:22:58;8.90;99.90
80706;DHT22;70229;48.010;7.852;2024-02-04T10:25:24;8.90;99.90
80706;DHT22;70229;48.010;7.852;2024-02-04T10:27:50;8.90;99.90
80706;DHT22;70229;48.010;7.852;2024-02-04T10:30:19;9.00;99.90
80706;DHT22;70229;48.010;7.852;2024-02-04T10:32:45;10.20;99.90
80706;DHT22;70229;48.010;7.852;2024-02-04T10:35:11;9.90;99.90
80706;DHT22;70229;48.010;7.852;2024-02-04T10:37:37;9.60;99.90
80706;DHT22;70229;48.010;7.852;2024-02-04T10:40:03;10.50;99.90
80706;DHT22;70229;48.010;7.852;2024-02-04T10:42:29;9.10;99.90
80706;DHT22;70229;48.010;7.852;2024-02-04T10:44:58;8.90;99.90
80706;DHT22;70229;48.010;7.852;2024-02-04T10:47:29;8.70;99.90
80706;DHT22;70229;48.010;7.852;2024-02-04T10:49:58;8.40;99.90
80706;DHT22;70229;48.010;7.852;2024-02-04T10:52:27;9.00;99.90
80706;DHT22;70229;48.010;7.852;2024-02-04T10:54:53;9.00;99.90
80706;DHT22;70229;48.010;7.852;2024-02-04T10:57:22;8.80;99.90
80706;DHT22;70229;48.010;7.852;2024-02-04T10:59:52;9.70;99.90
80706;DHT22;70229;48.010;7.852;2024-02-04T11:02:19;9.20;99.90
80706;DHT22;70229;48.010;7.852;2024-02-04T11:04:47;9.30;99.90
80706;DHT22;70229;48.010;7.852;2024-02-04T11:07:13;9.80;99.90
80706;DHT22;70229;48.010;7.852;2024-02-04T11:09:40;9.20;99.90
80706;DHT22;70229;48.010;7.852;2024-02-04T11:12:10;9.20;99.90
80706;DHT22;70229;48.010;7.852;2024-02-04T11:14:39;9.70;99.90
80706;DHT22;70229;48.010;7.852;2024-02-04T11:17:32;10.00;99.90
80706;DHT22;70229;48.010;7.852;2024-02-04T11:20:37;10.10;99.90
80706;DHT22;70229;48.010;7.852;2024-02-04T11:23:31;10.10;99.90
80706;DHT22;70229;48.010;7.852;2024-02-04T11:25:59;10.20;99.90
80706;DHT22;70229;48.010;7.852;2024-02-04T11:28:26;10.20;99.90
80706;DHT22;70229;48.010;7.852;2024-02-04T11:30:51;10.50;99.90
80706;DHT22;70229;48.010;7.852;2024-02-04T11:33:19;11.60;99.90
80706;DHT22;70229;48.010;7.852;2024-02-04T11:35:45;11.30;99.90
80706;DHT22;70229;48.010;7.852;2024-02-04T11:38:11;12.20;99.90
80706;DHT22;70229;48.010;7.852;2024-02-04T11:40:39;10.80;99.90
80706;DHT22;70229;48.010;7.852;2024-02-04T11:43:06;12.60;99.90
80706;DHT22;70229;48.010;7.852;2024-02-04T11:45:32;11.80;99.90
80706;DHT22;70229;48.010;7.852;2024-02-04T11:48:02;12.10;99.90
80706;DHT22;70229;48.010;7.852;2024-02-04T11:50:29;10.70;99.90
80706;DHT22;70229;48.010;7.852;2024-02-04T11:53:07;11.00;99.90
80706;DHT22;70229;48.010;7.852;2024-02-04T11:55:34;11.00;99.90
80706;DHT22;70229;48.010;7.852;2024-02-04T11:58:01;10.80;99.90
80706;DHT22;70229;48.010;7.852;2024-02-04T12:00:27;10.70;99.90
80706;DHT22;70229;48.010;7.852;2024-02-04T12:03:06;10.70;99.90
80706;DHT22;70229;48.010;7.852;2024-02-04T12:05:36;10.70;99.90
80706;DHT22;70229;48.010;7.852;2024-02-04T12:08:06;10.70;99.90
80706;DHT22;70229;48.010;7.852;2024-02-04T12:10:34;10.90;99.90
80706;DHT22;70229;48.010;7.852;2024-02-04T12:13:02;11.30;99.90
80706;DHT22;70229;48.010;7.852;2024-02-04T12:15:28;10.60;99.90
80706;DHT22;70229;48.010;7.852;2024-02-04T12:17:55;10.60;99.90
80706;DHT22;70229;48.010;7.852;2024-02-04T12:20:21;10.70;99.90
80706;DHT22;70229;48.010;7.852;2024-02-04T12:22:47;10.80;99.90
80706;DHT22;70229;48.010;7.852;2024-02-04T12:25:14;12.20;99.90
80706;DHT22;70229;48.010;7.852;2024-02-04T12:27:40;12.10;99.90
80706;DHT22;70229;48.010;7.852;2024-02-04T12:30:06;11.00;99.90
80706;DHT22;70229;48.010;7.852;2024-02-04T12:32:32;10.90;99.90
80706;DHT22;70229;48.010;7.852;2024-02-04T12:34:58;11.30;99.90
80706;DHT22;70229;48.010;7.852;2024-02-04T12:37:24;10.80;99.90
80706;DHT22;70229;48.010;7.852;2024-02-04T12:39:51;10.80;99.90
80706;DHT22;70229;48.010;7.852;2024-02-04T12:42:17;10.90;99.90
80706;DHT22;70229;48.010;7.852;2024-02-04T12:44:44;11.20;99.90
80706;DHT22;70229;48.010;7.852;2024-02-04T12:47:10;10.90;99.90
80706;DHT22;70229;48.010;7.852;2024-02-04T12:49:35;11.40;99.90
80706;DHT22;70229;48.010;7.852;2024-02-04T12:52:05;12.10;99.90
80706;DHT22;70229;48.010;7.852;2024-02-04T12:54:39;10.10;99.90
80706;DHT22;70229;48.010;7.852;2024-02-04T12:57:05;10.00;99.90
80706;DHT22;70229;48.010;7.852;2024-02-04T12:59:33;10.20;99.90
80706;DHT22;70229;48.010;7.852;2024-02-04T13:02:03;11.00;99.90
80706;DHT22;70229;48.010;7.852;2024-02-04T13:04:38;11.30;99.90
80706;DHT22;70229;48.010;7.852;2024-02-04T13:07:11;10.00;99.90
80706;DHT22;70229;48.010;7.852;2024-02-04T13:09:38;9.80;99.90
80706;DHT22;70229;48.010;7.852;2024-02-04T13:12:05;9.80;99.90
80706;DHT22;70229;48.010;7.852;2024-02-04T13:14:31;9.90;99.90
80706;DHT22;70229;48.010;7.852;2024-02-04T13:17:09;9.80;99.90
80706;DHT22;70229;48.010;7.852;2024-02-04T13:19:36;11.10;99.90
80706;DHT22;70229;48.010;7.852;2024-02-04T13:22:05;10.40;99.90
80706;DHT22;70229;48.010;7.852;2024-02-04T13:24:32;10.90;99.90
80706;DHT22;70229;48.010;7.852;2024-02-04T13:26:59;9.70;99.90
80706;DHT22;70229;48.010;7.852;2024-02-04T13:29:29;9.80;99.90
80706;DHT22;70229;48.010;7.852;2024-02-04T13:31:55;11.40;99.90
80706;DHT22;70229;48.010;7.852;2024-02-04T13:34:21;10.30;99.90
80706;DHT22;70229;48.010;7.852;2024-02-04T13:36:46;8.40;99.90
80706;DHT22;70229;48.010;7.852;2024-02-04T13:39:12;10.90;99.90
80706;DHT22;70229;48.010;7.852;2024-02-04T13:41:39;11.40;99.90
80706;DHT22;70229;48.010;7.852;2024-02-04T13:44:05;10.00;99.90
80706;DHT22;70229;48.010;7.852;2024-02-04T13:46:31;10.90;99.90
80706;DHT22;70229;48.010;7.852;2024-02-04T13:48:56;10.90;99.90
80706;DHT22;70229;48.010;7.852;2024-02-04T13:51:22;10.00;99.90
80706;DHT22;70229;48.010;7.852;2024-02-04T13:53:48;11.30;99.90
80706;DHT22;70229;48.010;7.852;2024-02-04T13:56:13;9.90;99.90
80706;DHT22;70229;48.010;7.852;2024-02-04T13:58:39;10.00;99.90
80706;DHT22;70229;48.010;7.852;2024-02-04T14:01:05;9.70;99.90
80706;DHT22;70229;48.010;7.852;2024-02-04T14:03:31;10.80;99.90
80706;DHT22;70229;48.010;7.852;2024-02-04T14:05:57;11.40;99.90
80706;DHT22;70229;48.010;7.852;2024-02-04T14:08:23;9.70;99.90
80706;DHT22;70229;48.010;7.852;2024-02-04T14:10:48;9.40;99.90
80706;DHT22;70229;48.010;7.852;2024-02-04T14:13:14;9.40;99.90
80706;DHT22;70229;48.010;7.852;2024-02-04T14:15:40;9.50;99.90
80706;DHT22;70229;48.010;7.852;2024-02-04T14:18:06;9.30;99.90
80706;DHT22;70229;48.010;7.852;2024-02-04T14:20:32;9.40;99.90
80706;DHT22;70229;48.010;7.852;2024-02-04T14:22:57;9.40;99.90
80706;DHT22;70229;48.010;7.852;2024-02-04T14:25:23;9.90;99.90
80706;DHT22;70229;48.010;7.852;2024-02-04T14:27:50;9.50;99.90
80706;DHT22;70229;48.010;7.852;2024-02-04T14:30:15;9.30;99.90
80706;DHT22;70229;48.010;7.852;2024-02-04T14:32:41;9.20;99.90
80706;DHT22;70229;48.010;7.852;2024-02-04T14:35:08;9.80;99.90
80706;DHT22;70229;48.010;7.852;2024-02-04T14:37:38;10.30;99.90
80706;DHT22;70229;48.010;7.852;2024-02-04T14:40:05;7.80;99.90
80706;DHT22;70229;48.010;7.852;2024-02-04T14:42:32;9.20;99.90
80706;DHT22;70229;48.010;7.852;2024-02-04T14:44:58;9.00;99.90
80706;DHT22;70229;48.010;7.852;2024-02-04T14:47:28;9.00;99.90
80706;DHT22;70229;48.010;7.852;2024-02-04T14:49:54;9.00;99.90
80706;DHT22;70229;48.010;7.852;2024-02-04T14:52:20;9.00;99.90
80706;DHT22;70229;48.010;7.852;2024-02-04T14:54:46;9.00;99.90
80706;DHT22;70229;48.010;7.852;2024-02-04T14:57:12;9.00;99.90
80706;DHT22;70229;48.010;7.852;2024-02-04T14:59:38;9.10;99.90
80706;DHT22;70229;48.010;7.852;2024-02-04T15:02:04;10.40;99.90
80706;DHT22;70229;48.010;7.852;2024-02-04T15:04:33;9.80;99.90
80706;DHT22;70229;48.010;7.852;2024-02-04T15:06:59;10.10;99.90
80706;DHT22;70229;48.010;7.852;2024-02-04T15:09:31;10.50;99.90
80706;DHT22;70229;48.010;7.852;2024-02-04T15:11:57;8.90;99.90
80706;DHT22;70229;48.010;7.852;2024-02-04T15:14:23;8.80;99.90
80706;DHT22;70229;48.010;7.852;2024-02-04T15:16:50;8.90;99.90
80706;DHT22;70229;48.010;7.852;2024-02-04T15:19:16;8.90;99.90
80706;DHT22;70229;48.010;7.852;2024-02-04T15:21:41;8.90;99.90
80706;DHT22;70229;48.010;7.852;2024-02-04T15:24:07;9.00;99.90
80706;DHT22;70229;48.010;7.852;2024-02-04T15:26:34;9.00;99.90
80706;DHT22;70229;48.010;7.852;2024-02-04T15:29:02;9.00;99.90
80706;DHT22;70229;48.010;7.852;2024-02-04T15:31:29;9.00;99.90
80706;DHT22;70229;48.010;7.852;2024-02-04T15:33:55;8.90;99.90
80706;DHT22;70229;48.010;7.852;2024-02-04T15:36:21;9.00;99.90
80706;DHT22;70229;48.010;7.852;2024-02-04T15:38:47;10.00;99.90
80706;DHT22;70229;48.010;7.852;2024-02-04T15:41:13;8.90;99.90
80706;DHT22;70229;48.010;7.852;2024-02-04T15:43:38;9.50;99.90
80706;DHT22;70229;48.010;7.852;2024-02-04T15:46:08;9.80;99.90
80706;DHT22;70229;48.010;7.852;2024-02-04T15:48:40;8.90;99.90
80706;DHT22;70229;48.010;7.852;2024-02-04T15:51:10;8.80;99.90
80706;DHT22;70229;48.010;7.852;2024-02-04T15:53:36;8.70;99.90
80706;DHT22;70229;48.010;7.852;2024-02-04T15:56:04;8.70;99.90
80706;DHT22;70229;48.010;7.852;2024-02-04T15:58:37;8.70;99.90
80706;DHT22;70229;48.010;7.852;2024-02-04T16:01:20;8.60;99.90
80706;DHT22;70229;48.010;7.852;2024-02-04T16:03:50;8.60;99.90
80706;DHT22;70229;48.010;7.852;2024-02-04T16:06:19;8.60;99.90
80706;DHT22;70229;48.010;7.852;2024-02-04T16:08:45;8.60;99.90
80706;DHT22;70229;48.010;7.852;2024-02-04T16:11:15;8.50;99.90
80706;DHT22;70229;48.010;7.852;2024-02-04T16:13:44;8.40;99.90
80706;DHT22;70229;48.010;7.852;2024-02-04T16:16:19;8.40;99.90
80706;DHT22;70229;48.010;7.852;2024-02-04T16:18:45;8.20;99.90
80706;DHT22;70229;48.010;7.852;2024-02-04T16:23:46;8.00;99.90
80706;DHT22;70229;48.010;7.852;2024-02-04T16:31:42;7.90;99.90
80706;DHT22;70229;48.010;7.852;2024-02-04T16:34:08;8.00;99.90
80706;DHT22;70229;48.010;7.852;2024-02-04T16:36:33;8.10;99.90
80706;DHT22;70229;48.010;7.852;2024-02-04T16:38:59;8.80;99.90
80706;DHT22;70229;48.010;7.852;2024-02-04T16:41:29;8.00;99.90
80706;DHT22;70229;48.010;7.852;2024-02-04T16:43:54;8.10;99.90
80706;DHT22;70229;48.010;7.852;2024-02-04T16:46:20;8.00;99.90
80706;DHT22;70229;48.010;7.852;2024-02-04T16:48:45;9.70;99.90
80706;DHT22;70229;48.010;7.852;2024-02-04T16:51:11;8.90;99.90
80706;DHT22;70229;48.010;7.852;2024-02-04T16:53:36;8.00;99.90
80706;DHT22;70229;48.010;7.852;2024-02-04T16:56:02;9.30;99.90
80706;DHT22;70229;48.010;7.852;2024-02-04T16:58:28;7.80;99.90
80706;DHT22;70229;48.010;7.852;2024-02-04T17:00:54;7.80;99.90
80706;DHT22;70229;48.010;7.852;2024-02-04T17:03:20;9.10;99.90
80706;DHT22;70229;48.010;7.852;2024-02-04T17:05:47;7.70;99.90
80706;DHT22;70229;48.010;7.852;2024-02-04T17:08:13;7.80;99.90
80706;DHT22;70229;48.010;7.852;2024-02-04T17:10:39;7.80;99.90